Romney, WV

11:18 AM EDT on September 02, 2014 (GMT -0400)
Romney | Change Station
CLOSE
Current Station
Personal Weather Station
Location: Romney, WV
Elevation: 846 ft
Nearby Weather Stations

Elev 846 ft 39.34 °N, 78.75 °W | Updated 11 seconds ago

Mostly Cloudy
Mostly Cloudy
82.0 °F
Feels Like 85 °F
N
0.0
Wind Variable Wind from West
Gusts 0.0 mph

Today
High -- | Low -- °F
--% Chance of Precip.
Yesterday
High -- | Low -- °F
Precip. -- in
6:44 AM 7:44 PM
First Quarter, 52% visible
Pressure 30.02 in
Visibility 10.0 miles
Clouds Scattered Clouds 3900 ft
Scattered Clouds 4800 ft
Scattered Clouds 6000 ft
Heat Index 85 °F
Dew Point 67 °F
Humidity 62%
Rainfall 0.00 in
Snow Depth Not available.
UV 6 out of 12
Pollen 8.50 out of 12
Air Quality Not available.
Flu Activity Not available.
METAR KCBE 021510Z AUTO 00000KT 10SM SCT039 SCT048 SCT060 30/21 A3002 RMK AO1

More Conditions Fewer Conditions

Pressure 30.02 in
Visibility 10.0 miles
Clouds Scattered Clouds 3900 ft
Scattered Clouds 4800 ft
Scattered Clouds 6000 ft
Heat Index 85 °F
Dew Point 67 °F
Humidity 62%
Rainfall 0.00 in
Snow Depth Not available.
UV 6 out of 12
Pollen 8.50 out of 12
Air Quality Not available.
Flu Activity Not available.
METAR KCBE 021510Z AUTO 00000KT 10SM SCT039 SCT048 SCT060 30/21 A3002 RMK AO1

More Conditions Fewer Conditions

10-Day Weather Forecast

Almanac

Astronomy

Sep. 02, 2014 Rise Set
Actual Time 6:44 AM EDT 7:44 PM EDT
Civil Twilight 6:16 AM EDT 8:11 PM EDT
Nautical Twilight 5:44 AM EDT 8:44 PM EDT
Astronomical Twilight 5:10 AM EDT 9:18 PM EDT
Moon 2:24 PM EDT No Moon Set
Length of Visible Light 13h 54m
Length of Day
12h 59m
Tomorrow will be 2m 29s shorter.
First Quarter, 52% of the Moon is Illuminated
Today
First Quarter
Sep 8
Full
Sep 15
Last Quarter
Sep 24
New
Oct 1
First Quarter

Today's Extremes

State Highs State Lows

Community

WunderPhotos

Upload Photos

1,749,690 photos uploaded!

Nearby

Snow Depth

Station Depth Elevation
No new snow has been reported.

Earthquake Activity

City Distance Mag. Time & Date
No recent earthquake activity has been reported nearby.
Minimum magnitude displayed is 2.5.

Coastal Water Temperatures

Place Temperature
No Stations Reporting

Nearby Weather Stations